Time;durP1;ratioP1;P1;durP2;ratioP2;P2;SDS_P1;SDS_P2;PMS_P1;PMS_P2;Temp;Humidity;BMP_temperature;BMP_pressure;BME280_temperature;BME280_humidity;BME280_pressure;Samples;Min_cycle;Max_cycle;Signal;HPM_P1;HPM_P2
2022/04/12 00:02:11;;;;;;;3.60;1.20;;;;;;;;;;6254032;28;20076;-71
2022/04/12 00:05:13;;;;;;;2.20;1.25;;;;;;;;;;6257859;28;20124;-73
2022/04/12 00:08:15;;;;;;;6.28;1.40;;;;;;;;;;6255133;28;20052;-71
2022/04/12 00:11:16;;;;;;;4.82;1.15;;;;;;;;;;6261731;28;20390;-71
2022/04/12 00:14:18;;;;;;;2.30;0.88;;;;;;;;;;6256872;28;20050;-72
2022/04/12 00:20:41;;;;;;;8.70;1.23;;;;;;;;;;6259326;28;20451;-72
2022/04/12 00:23:42;;;;;;;3.45;0.95;;;;;;;;;;6260829;28;20049;-71
2022/04/12 00:26:44;;;;;;;2.08;1.10;;;;;;;;;;6258169;28;20052;-71
2022/04/12 00:29:45;;;;;;;2.63;1.15;;;;;;;;;;6260389;28;20131;-73
2022/04/12 00:32:50;;;;;;;3.65;1.05;;;;;;;;;;6260492;28;20061;-71
2022/04/12 00:35:52;;;;;;;4.60;1.15;;;;;;;;;;6257732;28;20083;-71
2022/04/12 00:38:54;;;;;;;3.25;1.13;;;;;;;;;;6261535;28;20059;-71
2022/04/12 00:41:57;;;;;;;4.07;1.10;;;;;;;;;;6260666;28;20052;-74
2022/04/12 00:44:58;;;;;;;4.13;0.80;;;;;;;;;;6263786;28;20052;-73
2022/04/12 00:48:02;;;;;;;2.88;1.08;;;;;;;;;;6264021;28;20053;-73
2022/04/12 00:51:04;;;;;;;2.45;0.80;;;;;;;;;;6255821;28;20049;-72
2022/04/12 00:54:06;;;;;;;2.60;1.02;;;;;;;;;;6262259;28;20052;-72
2022/04/12 00:57:08;;;;;;;2.00;0.85;;;;;;;;;;6258538;28;20401;-73
2022/04/12 01:00:11;;;;;;;3.08;0.80;;;;;;;;;;6263075;28;20041;-73
2022/04/12 01:03:14;;;;;;;1.60;0.90;;;;;;;;;;6257187;28;20192;-74
2022/04/12 01:06:16;;;;;;;1.55;0.85;;;;;;;;;;6262515;28;20091;-72
2022/04/12 01:09:18;;;;;;;1.42;0.90;;;;;;;;;;6256920;28;20515;-72
2022/04/12 01:12:21;;;;;;;1.83;0.70;;;;;;;;;;6252681;28;20505;-72
2022/04/12 01:15:24;;;;;;;3.53;1.00;;;;;;;;;;6255335;28;20045;-72
2022/04/12 01:18:27;;;;;;;2.93;1.17;;;;;;;;;;6254731;28;20048;-72
2022/04/12 01:21:32;;;;;;;3.63;0.80;;;;;;;;;;6261504;28;20103;-72
2022/04/12 01:24:35;;;;;;;1.52;0.90;;;;;;;;;;6255824;28;20060;-70
2022/04/12 01:27:37;;;;;;;4.80;0.82;;;;;;;;;;6259244;28;20087;-71
2022/04/12 01:30:39;;;;;;;1.42;1.00;;;;;;;;;;6255492;28;20060;-72
2022/04/12 01:33:41;;;;;;;2.85;0.77;;;;;;;;;;6259380;28;20128;-71
2022/04/12 01:36:43;;;;;;;2.55;0.98;;;;;;;;;;6260099;28;20044;-72
2022/04/12 01:39:45;;;;;;;2.55;0.93;;;;;;;;;;6259933;28;20548;-74
2022/04/12 01:42:47;;;;;;;3.60;0.75;;;;;;;;;;6257544;28;20595;-72
2022/04/12 01:45:49;;;;;;;2.47;0.93;;;;;;;;;;6260011;28;20131;-72
2022/04/12 01:48:50;;;;;;;1.95;1.00;;;;;;;;;;6248651;28;20136;-72
2022/04/12 01:51:52;;;;;;;6.13;0.90;;;;;;;;;;6251406;28;20045;-72
2022/04/12 01:54:55;;;;;;;2.80;1.08;;;;;;;;;;6256526;28;20124;-72
2022/04/12 01:57:57;;;;;;;2.35;1.20;;;;;;;;;;6256762;28;20061;-72
2022/04/12 02:00:58;;;;;;;3.60;1.08;;;;;;;;;;6257343;28;20049;-72
2022/04/12 02:04:00;;;;;;;5.03;2.20;;;;;;;;;;6256864;28;20053;-72
2022/04/12 02:07:01;;;;;;;4.55;1.95;;;;;;;;;;6257862;28;20080;-73
2022/04/12 02:10:05;;;;;;;9.98;2.35;;;;;;;;;;6258275;28;20048;-71
2022/04/12 02:13:07;;;;;;;5.07;2.00;;;;;;;;;;6260690;28;20064;-73
2022/04/12 02:16:08;;;;;;;5.82;2.20;;;;;;;;;;6258463;28;20401;-73
2022/04/12 02:19:10;;;;;;;5.03;1.70;;;;;;;;;;6258866;28;20045;-71
2022/04/12 02:22:12;;;;;;;4.18;1.15;;;;;;;;;;6256137;28;20046;-71
2022/04/12 02:25:15;;;;;;;5.95;1.65;;;;;;;;;;6255487;28;20056;-72
2022/04/12 02:28:16;;;;;;;6.28;1.77;;;;;;;;;;6252685;28;20123;-72
2022/04/12 02:31:18;;;;;;;6.18;1.95;;;;;;;;;;6256078;28;20049;-72
2022/04/12 02:34:19;;;;;;;4.32;1.55;;;;;;;;;;6259231;28;20136;-72
2022/04/12 02:37:21;;;;;;;4.18;1.23;;;;;;;;;;6253286;28;20098;-72
2022/04/12 02:40:24;;;;;;;3.45;1.40;;;;;;;;;;6254791;28;20127;-73
2022/04/12 02:43:25;;;;;;;5.78;1.70;;;;;;;;;;6253301;28;20045;-73
2022/04/12 02:46:27;;;;;;;2.40;1.20;;;;;;;;;;6256621;28;20174;-73
2022/04/12 02:49:29;;;;;;;4.28;1.20;;;;;;;;;;6248723;28;20058;-73
2022/04/12 02:52:30;;;;;;;3.67;1.10;;;;;;;;;;6248905;28;20057;-72
2022/04/12 02:55:34;;;;;;;3.60;1.10;;;;;;;;;;6253104;28;20049;-73
2022/04/12 02:58:35;;;;;;;6.03;1.20;;;;;;;;;;6254850;28;20191;-72
2022/04/12 03:01:37;;;;;;;2.67;0.98;;;;;;;;;;6253718;28;20065;-73
2022/04/12 03:04:40;;;;;;;7.95;1.10;;;;;;;;;;6255115;28;20122;-73
2022/04/12 03:07:42;;;;;;;2.78;0.98;;;;;;;;;;6255249;28;20083;-73
2022/04/12 03:10:44;;;;;;;2.60;1.20;;;;;;;;;;6257318;28;20534;-73
2022/04/12 03:13:46;;;;;;;3.85;1.25;;;;;;;;;;6257306;28;20083;-73
2022/04/12 03:16:48;;;;;;;4.35;1.13;;;;;;;;;;6251315;28;20053;-73
2022/04/12 03:19:50;;;;;;;4.07;0.98;;;;;;;;;;6257594;28;20048;-73
2022/04/12 03:22:52;;;;;;;2.40;1.08;;;;;;;;;;6260258;28;20045;-73
2022/04/12 03:25:55;;;;;;;6.00;1.00;;;;;;;;;;6259594;28;20049;-73
2022/04/12 03:28:57;;;;;;;3.17;1.20;;;;;;;;;;6258784;28;20057;-73
2022/04/12 03:31:59;;;;;;;3.08;1.02;;;;;;;;;;6261511;28;20120;-73
2022/04/12 03:35:00;;;;;;;4.38;1.45;;;;;;;;;;6259720;28;20357;-74
2022/04/12 03:38:02;;;;;;;4.47;1.20;;;;;;;;;;6263481;28;20045;-73
2022/04/12 03:41:06;;;;;;;3.40;1.30;;;;;;;;;;6255783;28;20045;-73
2022/04/12 03:44:08;;;;;;;3.10;0.98;;;;;;;;;;6255323;28;20519;-73
2022/04/12 03:47:10;;;;;;;4.60;1.25;;;;;;;;;;6250958;28;20132;-73
2022/04/12 03:50:11;;;;;;;3.75;1.17;;;;;;;;;;6250298;28;20072;-73
2022/04/12 03:53:13;;;;;;;2.22;0.90;;;;;;;;;;6249465;28;20557;-74
2022/04/12 03:56:16;;;;;;;2.80;1.20;;;;;;;;;;6251590;28;20041;-73
2022/04/12 03:59:18;;;;;;;2.50;1.20;;;;;;;;;;6252576;28;20053;-73
2022/04/12 04:02:20;;;;;;;2.03;1.10;;;;;;;;;;6251908;28;20456;-73
2022/04/12 04:05:22;;;;;;;3.28;1.30;;;;;;;;;;6255456;28;20042;-73
2022/04/12 04:08:23;;;;;;;6.57;1.30;;;;;;;;;;6250207;28;20126;-74
2022/04/12 04:11:26;;;;;;;4.43;1.55;;;;;;;;;;6255547;28;20049;-73
2022/04/12 04:14:28;;;;;;;4.63;1.67;;;;;;;;;;6254460;28;20084;-73
2022/04/12 04:17:30;;;;;;;2.30;1.02;;;;;;;;;;6255348;28;20059;-73
2022/04/12 04:20:32;;;;;;;4.38;1.40;;;;;;;;;;6255269;28;20044;-73
2022/04/12 04:23:33;;;;;;;3.13;1.52;;;;;;;;;;6256646;28;20089;-73
2022/04/12 04:26:36;;;;;;;8.73;2.28;;;;;;;;;;6255086;28;20136;-73
2022/04/12 04:29:38;;;;;;;4.30;1.60;;;;;;;;;;6260565;28;20054;-73
2022/04/12 04:32:40;;;;;;;8.35;1.75;;;;;;;;;;6265072;28;20049;-72
2022/04/12 04:35:42;;;;;;;6.85;1.92;;;;;;;;;;6256576;28;20515;-73
2022/04/12 04:38:43;;;;;;;5.70;1.63;;;;;;;;;;6261703;28;20124;-71
2022/04/12 04:41:46;;;;;;;7.97;1.50;;;;;;;;;;6265524;28;20045;-71
2022/04/12 04:44:48;;;;;;;5.05;2.08;;;;;;;;;;6267599;28;20045;-71
2022/04/12 04:47:51;;;;;;;3.50;1.58;;;;;;;;;;6265756;28;20124;-71
2022/04/12 04:50:53;;;;;;;8.20;1.60;;;;;;;;;;6259338;28;20056;-71
2022/04/12 04:53:58;;;;;;;9.45;1.45;;;;;;;;;;6256786;28;20674;-73
2022/04/12 04:57:01;;;;;;;9.43;1.95;;;;;;;;;;6253186;28;20151;-73
2022/04/12 05:00:04;;;;;;;5.80;1.60;;;;;;;;;;6250146;28;20511;-74
2022/04/12 05:03:05;;;;;;;4.63;1.70;;;;;;;;;;6254604;28;20476;-73
2022/04/12 05:06:07;;;;;;;4.53;1.63;;;;;;;;;;6255414;28;20060;-73
2022/04/12 05:09:09;;;;;;;5.10;2.00;;;;;;;;;;6253916;28;20041;-73
2022/04/12 05:12:13;;;;;;;8.75;2.17;;;;;;;;;;6258126;28;20045;-73
2022/04/12 05:15:15;;;;;;;8.75;1.80;;;;;;;;;;6258972;28;20081;-73
2022/04/12 05:18:16;;;;;;;6.85;2.03;;;;;;;;;;6253776;28;20096;-75
2022/04/12 05:21:18;;;;;;;6.65;1.83;;;;;;;;;;6256915;28;20123;-73
2022/04/12 05:24:20;;;;;;;6.22;1.83;;;;;;;;;;6258497;28;20505;-73
2022/04/12 05:27:23;;;;;;;5.53;1.80;;;;;;;;;;6257807;28;20056;-73
2022/04/12 05:30:24;;;;;;;5.00;2.03;;;;;;;;;;6260364;28;20132;-72
2022/04/12 05:33:26;;;;;;;3.65;1.55;;;;;;;;;;6256601;28;20049;-73
2022/04/12 05:36:28;;;;;;;4.57;2.30;;;;;;;;;;6262397;28;20525;-72
2022/04/12 05:39:29;;;;;;;8.55;1.77;;;;;;;;;;6259749;28;20103;-73
2022/04/12 05:42:32;;;;;;;4.70;2.10;;;;;;;;;;6261289;28;20061;-73
2022/04/12 05:45:34;;;;;;;3.75;1.98;;;;;;;;;;6257756;28;20100;-73
2022/04/12 05:48:35;;;;;;;3.53;1.67;;;;;;;;;;6260681;28;20071;-73
2022/04/12 05:51:37;;;;;;;9.15;1.80;;;;;;;;;;6256382;28;20073;-74
2022/04/12 05:54:38;;;;;;;10.98;2.30;;;;;;;;;;6253866;28;20128;-73
2022/04/12 05:57:48;;;;;;;5.85;2.13;;;;;;;;;;6254034;28;20076;-74
2022/04/12 06:00:50;;;;;;;7.80;2.67;;;;;;;;;;6253900;28;20052;-74
2022/04/12 06:03:52;;;;;;;9.25;2.25;;;;;;;;;;6256940;28;20053;-73
2022/04/12 06:06:53;;;;;;;9.48;2.35;;;;;;;;;;6253497;28;20054;-74
2022/04/12 06:09:55;;;;;;;6.68;2.80;;;;;;;;;;6255445;28;20054;-73
2022/04/12 06:12:58;;;;;;;8.32;2.70;;;;;;;;;;6254318;28;20069;-74
2022/04/12 06:16:00;;;;;;;10.57;2.60;;;;;;;;;;6254824;28;20049;-74
2022/04/12 06:19:01;;;;;;;6.85;2.95;;;;;;;;;;6252415;28;20124;-74
2022/04/12 06:22:03;;;;;;;11.00;2.88;;;;;;;;;;6255460;28;20535;-73
2022/04/12 06:25:05;;;;;;;7.10;2.90;;;;;;;;;;6256630;28;20110;-73
2022/04/12 06:28:08;;;;;;;7.57;2.67;;;;;;;;;;6255004;28;20057;-72
2022/04/12 06:31:10;;;;;;;8.27;3.20;;;;;;;;;;6257105;28;20139;-73
2022/04/12 06:34:12;;;;;;;9.93;3.20;;;;;;;;;;6256083;28;20179;-73
2022/04/12 06:37:13;;;;;;;8.80;3.53;;;;;;;;;;6256501;28;20542;-73
2022/04/12 06:40:19;;;;;;;10.13;3.08;;;;;;;;;;6257624;28;20052;-74
2022/04/12 06:43:22;;;;;;;12.65;3.00;;;;;;;;;;6257083;28;20384;-73
2022/04/12 06:46:24;;;;;;;11.05;3.00;;;;;;;;;;6252988;28;20052;-73
2022/04/12 06:49:25;;;;;;;7.28;2.95;;;;;;;;;;6247016;28;20061;-73
2022/04/12 06:52:27;;;;;;;8.48;3.03;;;;;;;;;;6252002;28;20073;-72
2022/04/12 06:55:29;;;;;;;9.63;3.20;;;;;;;;;;6253797;28;20134;-73
2022/04/12 06:58:33;;;;;;;8.98;3.03;;;;;;;;;;6259132;28;20091;-73
2022/04/12 07:01:34;;;;;;;;;;;;;;;;;;6255698;28;20041;-72
2022/04/12 07:04:36;;;;;;;7.25;2.22;;;;;;;;;;6258266;28;19928;-73
2022/04/12 07:07:38;;;;;;;5.68;2.42;;;;;;;;;;6255936;28;20057;-74
2022/04/12 07:10:42;;;;;;;4.80;2.03;;;;;;;;;;6257854;28;20056;-73
2022/04/12 07:13:45;;;;;;;8.63;2.50;;;;;;;;;;6257151;28;20049;-72
2022/04/12 07:16:46;;;;;;;4.80;2.17;;;;;;;;;;6255005;28;20555;-72
2022/04/12 07:19:48;;;;;;;5.55;2.03;;;;;;;;;;6259543;28;20073;-74
2022/04/12 07:22:50;;;;;;;6.97;1.70;;;;;;;;;;6260034;28;20806;-73
2022/04/12 07:25:52;;;;;;;5.30;2.20;;;;;;;;;;6263543;28;20049;-73
2022/04/12 07:28:55;;;;;;;5.65;1.80;;;;;;;;;;6257973;28;20075;-73
2022/04/12 07:31:56;;;;;;;3.50;1.80;;;;;;;;;;6257726;28;20524;-72
2022/04/12 07:34:58;;;;;;;5.70;1.90;;;;;;;;;;6259657;28;20127;-73
2022/04/12 07:38:00;;;;;;;8.43;2.00;;;;;;;;;;6259114;28;20049;-72
2022/04/12 07:41:01;;;;;;;6.32;2.00;;;;;;;;;;6261035;28;20053;-72
2022/04/12 07:44:05;;;;;;;4.07;1.58;;;;;;;;;;6252228;28;20044;-74
2022/04/12 07:47:08;;;;;;;6.22;2.08;;;;;;;;;;6254263;28;20187;-76
2022/04/12 07:50:10;;;;;;;5.13;1.50;;;;;;;;;;6248491;28;20045;-75
2022/04/12 07:53:12;;;;;;;5.57;2.38;;;;;;;;;;6249937;28;20041;-76
2022/04/12 07:56:13;;;;;;;6.25;1.85;;;;;;;;;;6249944;28;20052;-75
2022/04/12 07:59:16;;;;;;;4.28;2.30;;;;;;;;;;6252531;28;20041;-76
2022/04/12 08:02:18;;;;;;;4.03;1.70;;;;;;;;;;6254692;28;20060;-76
2022/04/12 08:05:19;;;;;;;4.18;2.33;;;;;;;;;;6255688;28;20057;-76
2022/04/12 08:08:21;;;;;;;5.20;1.98;;;;;;;;;;6258708;28;20144;-76
2022/04/12 08:11:23;;;;;;;5.22;1.80;;;;;;;;;;6262696;28;20072;-75
2022/04/12 08:14:26;;;;;;;5.47;1.85;;;;;;;;;;6261951;28;20069;-76
2022/04/12 08:17:27;;;;;;;4.40;1.65;;;;;;;;;;6258237;28;20071;-76
2022/04/12 08:20:29;;;;;;;4.88;2.00;;;;;;;;;;6261705;28;20144;-76
2022/04/12 08:23:31;;;;;;;6.43;1.70;;;;;;;;;;6258569;28;20864;-76
2022/04/12 08:26:32;;;;;;;2.83;1.58;;;;;;;;;;6259549;28;20084;-76
2022/04/12 08:29:35;;;;;;;7.05;1.77;;;;;;;;;;6267006;28;20076;-76
2022/04/12 08:32:37;;;;;;;3.50;1.65;;;;;;;;;;6266658;28;20214;-77
2022/04/12 08:35:39;;;;;;;5.63;1.65;;;;;;;;;;6268541;28;20048;-76
2022/04/12 08:38:40;;;;;;;3.40;1.77;;;;;;;;;;6264937;28;20124;-76
2022/04/12 08:41:42;;;;;;;7.22;2.28;;;;;;;;;;6261061;28;20041;-75
2022/04/12 08:44:47;;;;;;;5.43;2.10;;;;;;;;;;6254926;28;20496;-76
2022/04/12 08:47:48;;;;;;;8.32;2.33;;;;;;;;;;6254440;28;20065;-76
2022/04/12 08:50:50;;;;;;;3.95;2.13;;;;;;;;;;6253501;28;20061;-76
2022/04/12 08:53:53;;;;;;;5.75;2.30;;;;;;;;;;6254435;28;20045;-76
2022/04/12 08:56:54;;;;;;;3.80;2.03;;;;;;;;;;6256986;28;20489;-76
2022/04/12 08:59:58;;;;;;;5.07;2.25;;;;;;;;;;6253165;28;20153;-76
2022/04/12 09:03:00;;;;;;;4.63;1.85;;;;;;;;;;6256602;28;20068;-76
2022/04/12 09:06:01;;;;;;;4.88;2.97;;;;;;;;;;6255127;28;20110;-74
2022/04/12 09:09:13;;;;;;;4.75;2.65;;;;;;;;;;6257679;28;20089;-75
2022/04/12 09:12:17;;;;;;;3.38;1.95;;;;;;;;;;6254701;28;20130;-76
2022/04/12 09:15:23;;;;;;;2.85;1.90;;;;;;;;;;6257233;28;20413;-76
2022/04/12 09:18:35;;;;;;;3.72;1.77;;;;;;;;;;6255233;28;20073;-75
2022/04/12 09:21:45;;;;;;;2.80;2.20;;;;;;;;;;6257908;28;20120;-76
2022/04/12 09:24:48;;;;;;;5.45;2.30;;;;;;;;;;6255436;28;20062;-75
2022/04/12 09:27:50;;;;;;;3.78;2.08;;;;;;;;;;6258955;28;20057;-75
2022/04/12 09:30:55;;;;;;;3.70;1.90;;;;;;;;;;6254838;28;20130;-76
2022/04/12 09:33:57;;;;;;;4.05;2.13;;;;;;;;;;6260404;28;20386;-76
2022/04/12 09:36:59;;;;;;;5.18;2.10;;;;;;;;;;6259089;28;20049;-72
2022/04/12 09:40:08;;;;;;;5.15;1.90;;;;;;;;;;6263934;28;20053;-72
2022/04/12 09:43:12;;;;;;;3.63;1.80;;;;;;;;;;6254731;28;20234;-75
2022/04/12 09:46:17;;;;;;;5.43;2.00;;;;;;;;;;6255229;28;20052;-73
2022/04/12 09:49:18;;;;;;;4.93;2.00;;;;;;;;;;6253883;28;20049;-72
2022/04/12 09:52:20;;;;;;;6.38;2.55;;;;;;;;;;6257459;28;20063;-73
2022/04/12 09:55:37;;;;;;;5.28;1.95;;;;;;;;;;6254236;28;20049;-73
2022/04/12 09:58:39;;;;;;;4.20;2.22;;;;;;;;;;6249051;28;20052;-75
2022/04/12 10:01:42;;;;;;;5.63;2.50;;;;;;;;;;6252382;28;20543;-75
2022/04/12 10:04:44;;;;;;;28.95;22.42;;;;;;;;;;6253033;28;20041;-76
2022/04/12 10:07:46;;;;;;;33.70;23.83;;;;;;;;;;6254670;28;20042;-79
2022/04/12 10:10:47;;;;;;;9.20;3.60;;;;;;;;;;6259932;28;20068;-76
2022/04/12 10:13:49;;;;;;;5.43;3.13;;;;;;;;;;6254017;28;20463;-74
2022/04/12 10:16:53;;;;;;;6.97;3.15;;;;;;;;;;6252037;28;20049;-75
2022/04/12 10:19:54;;;;;;;6.60;2.50;;;;;;;;;;6249513;28;20060;-75
2022/04/12 10:22:57;;;;;;;8.48;3.97;;;;;;;;;;6253690;28;20076;-75
2022/04/12 10:26:00;;;;;;;4.95;2.83;;;;;;;;;;6260592;28;20119;-74
2022/04/12 10:29:04;;;;;;;;;;;;;;;;;;6251999;28;20060;-75
2022/04/12 10:32:13;;;;;;;4.25;2.45;;;;;;;;;;6254368;28;19925;-79
2022/04/12 10:35:15;;;;;;;4.03;2.63;;;;;;;;;;6261281;28;20053;-73
2022/04/12 10:38:18;;;;;;;5.22;2.85;;;;;;;;;;6259016;28;20037;-79
2022/04/12 10:41:30;;;;;;;6.25;3.10;;;;;;;;;;6253234;28;20521;-78
2022/04/12 10:44:41;;;;;;;6.20;2.97;;;;;;;;;;6259534;28;20049;-76
2022/04/12 10:47:45;;;;;;;7.05;3.20;;;;;;;;;;6253381;28;20137;-77
2022/04/12 10:50:47;;;;;;;9.38;3.00;;;;;;;;;;6257065;28;20476;-78
2022/04/12 10:53:55;;;;;;;6.28;2.70;;;;;;;;;;6257137;28;20060;-77
2022/04/12 10:57:23;;;;;;;4.15;2.60;;;;;;;;;;6254775;28;20107;-77
2022/04/12 11:00:24;;;;;;;4.15;2.70;;;;;;;;;;6258227;28;20121;-80
2022/04/12 11:03:53;;;;;;;5.72;2.78;;;;;;;;;;6256085;28;20175;-82
2022/04/12 11:06:59;;;;;;;4.13;2.50;;;;;;;;;;6261358;28;20461;-84
2022/04/12 11:10:29;;;;;;;4.72;2.88;;;;;;;;;;6256295;28;20188;-76
2022/04/12 11:13:33;;;;;;;4.15;2.90;;;;;;;;;;6254800;28;20111;-76
2022/04/12 11:16:48;;;;;;;4.05;2.97;;;;;;;;;;6259836;28;20540;-77
2022/04/12 11:19:54;;;;;;;6.72;3.30;;;;;;;;;;6251249;28;20147;-76
2022/04/12 11:22:57;;;;;;;7.65;4.00;;;;;;;;;;6260227;28;20055;-79
2022/04/12 11:26:29;;;;;;;5.57;3.17;;;;;;;;;;6252705;28;20055;-76
2022/04/12 11:29:31;;;;;;;5.60;3.10;;;;;;;;;;6260103;28;20056;-73
2022/04/12 11:32:33;;;;;;;7.68;3.30;;;;;;;;;;6254944;28;20084;-73
2022/04/12 11:35:37;;;;;;;6.43;3.63;;;;;;;;;;6258461;28;20037;-76
2022/04/12 11:38:39;;;;;;;3.67;3.25;;;;;;;;;;6255574;28;20413;-78
2022/04/12 11:41:40;;;;;;;5.38;3.25;;;;;;;;;;6257732;28;20511;-76
2022/04/12 11:44:51;;;;;;;5.15;3.20;;;;;;;;;;6261925;28;20053;-74
2022/04/12 11:47:53;;;;;;;8.23;3.85;;;;;;;;;;6258320;28;20413;-77
2022/04/12 11:50:57;;;;;;;6.43;3.40;;;;;;;;;;6254437;28;20056;-76
2022/04/12 11:53:58;;;;;;;5.07;3.28;;;;;;;;;;6255095;28;20057;-77
2022/04/12 11:57:02;;;;;;;4.38;3.42;;;;;;;;;;6256823;28;20055;-74
2022/04/12 12:00:04;;;;;;;11.80;4.00;;;;;;;;;;6253146;28;21738;-74
2022/04/12 12:03:06;;;;;;;;;;;;;;;;;;6256862;28;20161;-72
2022/04/12 12:06:09;;;;;;;4.15;3.33;;;;;;;;;;6258852;28;20317;-73
2022/04/12 12:09:16;;;;;;;4.57;3.90;;;;;;;;;;6259818;28;20056;-77
2022/04/12 12:12:18;;;;;;;6.45;3.67;;;;;;;;;;6259832;28;20597;-78
2022/04/12 12:15:21;;;;;;;6.20;3.47;;;;;;;;;;6260488;28;20067;-75
2022/04/12 12:18:23;;;;;;;5.80;4.00;;;;;;;;;;6263900;28;20206;-75
2022/04/12 12:21:30;;;;;;;6.13;3.72;;;;;;;;;;6267004;28;20205;-74
2022/04/12 12:24:37;;;;;;;4.97;3.95;;;;;;;;;;6265800;28;20048;-74
2022/04/12 12:27:41;;;;;;;7.13;3.90;;;;;;;;;;6258961;28;20049;-70
2022/04/12 12:30:43;;;;;;;5.47;3.33;;;;;;;;;;6259127;28;20053;-76
2022/04/12 12:33:46;;;;;;;5.47;3.30;;;;;;;;;;6260764;28;20053;-74
2022/04/12 12:36:51;;;;;;;6.03;3.35;;;;;;;;;;6263670;28;20049;-73
2022/04/12 12:39:53;;;;;;;5.78;3.60;;;;;;;;;;6261755;28;20102;-73
2022/04/12 12:42:55;;;;;;;6.13;3.65;;;;;;;;;;6255621;28;20063;-74
2022/04/12 12:45:56;;;;;;;;;;;;;;;;;;6253297;28;20051;-74
2022/04/12 12:49:11;;;;;;;6.43;3.65;;;;;;;;;;6256446;28;19966;-74
2022/04/12 12:52:15;;;;;;;4.78;3.22;;;;;;;;;;6249874;28;20449;-74
2022/04/12 12:55:18;;;;;;;4.10;3.40;;;;;;;;;;6256282;28;20120;-74
2022/04/12 12:58:20;;;;;;;7.93;5.07;;;;;;;;;;6252389;28;20654;-74
2022/04/12 13:01:22;;;;;;;4.80;3.65;;;;;;;;;;6253705;28;20060;-74
2022/04/12 13:04:25;;;;;;;4.93;3.13;;;;;;;;;;6244879;28;20061;-74
2022/04/12 13:07:32;;;;;;;4.47;3.65;;;;;;;;;;6252702;28;20076;-74
2022/04/12 13:10:38;;;;;;;8.80;3.60;;;;;;;;;;6256853;28;20061;-74
2022/04/12 13:13:40;;;;;;;5.43;3.53;;;;;;;;;;6257047;28;20118;-74
2022/04/12 13:16:42;;;;;;;;;;;;;;;;;;6256683;28;20049;-74
2022/04/12 13:19:44;;;;;;;5.30;3.40;;;;;;;;;;6253587;28;19925;-75
2022/04/12 13:22:48;;;;;;;6.00;3.88;;;;;;;;;;6255722;28;20452;-73
2022/04/12 13:25:50;;;;;;;5.82;3.70;;;;;;;;;;6257333;28;20133;-73
2022/04/12 13:28:51;;;;;;;6.50;3.40;;;;;;;;;;6259754;28;20084;-74
2022/04/12 13:31:53;;;;;;;4.72;3.65;;;;;;;;;;6260154;28;20138;-73
2022/04/12 13:34:55;;;;;;;5.05;4.05;;;;;;;;;;6260919;28;20049;-74
2022/04/12 13:37:58;;;;;;;7.15;4.10;;;;;;;;;;6257276;28;20090;-73
2022/04/12 13:40:59;;;;;;;5.70;3.83;;;;;;;;;;6262282;28;20072;-74
2022/04/12 13:44:01;;;;;;;7.50;4.00;;;;;;;;;;6247362;28;20188;-73
2022/04/12 13:47:05;;;;;;;5.10;3.67;;;;;;;;;;6253191;28;20057;-75
2022/04/12 13:50:07;;;;;;;6.38;3.90;;;;;;;;;;6250447;28;20453;-74
2022/04/12 13:53:10;;;;;;;8.18;4.00;;;;;;;;;;6254154;28;20041;-74
2022/04/12 13:56:12;;;;;;;4.65;3.67;;;;;;;;;;6248477;28;20041;-74
2022/04/12 13:59:13;;;;;;;6.40;3.33;;;;;;;;;;6254357;28;20048;-73
2022/04/12 14:02:15;;;;;;;7.18;3.53;;;;;;;;;;6253156;28;20179;-73
2022/04/12 14:05:17;;;;;;;6.30;4.60;;;;;;;;;;6255102;28;20424;-74
2022/04/12 14:08:20;;;;;;;6.53;4.47;;;;;;;;;;6250791;28;20119;-74
2022/04/12 14:11:21;;;;;;;4.75;3.63;;;;;;;;;;6255828;28;20473;-74
2022/04/12 14:14:23;;;;;;;9.37;4.40;;;;;;;;;;6254952;28;20132;-75
2022/04/12 14:17:24;;;;;;;5.20;4.47;;;;;;;;;;6253139;28;20707;-73
2022/04/12 14:20:26;;;;;;;6.87;3.90;;;;;;;;;;6253591;28;20080;-74
2022/04/12 14:23:29;;;;;;;5.85;4.03;;;;;;;;;;6256366;28;20542;-74
2022/04/12 14:26:31;;;;;;;7.25;4.20;;;;;;;;;;6251878;28;20076;-74
2022/04/12 14:29:33;;;;;;;12.35;4.15;;;;;;;;;;6256981;28;20052;-75
2022/04/12 14:32:34;;;;;;;11.40;4.27;;;;;;;;;;6255128;28;20175;-75
2022/04/12 14:35:36;;;;;;;9.73;4.57;;;;;;;;;;6252492;28;20044;-73
2022/04/12 14:38:39;;;;;;;9.73;4.93;;;;;;;;;;6257731;28;20548;-74
2022/04/12 14:41:42;;;;;;;9.13;4.70;;;;;;;;;;6250164;28;20096;-74
2022/04/12 14:44:44;;;;;;;7.10;4.22;;;;;;;;;;6250936;28;20052;-74
2022/04/12 14:47:48;;;;;;;38.15;5.82;;;;;;;;;;6251558;28;20053;-74
2022/04/12 14:50:50;;;;;;;11.65;5.88;;;;;;;;;;6252558;28;20110;-74
2022/04/12 14:53:53;;;;;;;6.53;4.75;;;;;;;;;;6251930;28;21472;-74
2022/04/12 14:56:55;;;;;;;10.45;5.30;;;;;;;;;;6253752;28;20049;-74
2022/04/12 14:59:57;;;;;;;8.07;4.73;;;;;;;;;;6253332;28;20157;-75
2022/04/12 15:02:59;;;;;;;7.90;5.78;;;;;;;;;;6253577;28;20175;-74
2022/04/12 15:06:00;;;;;;;7.80;5.60;;;;;;;;;;6254708;28;20134;-76
2022/04/12 15:09:04;;;;;;;7.30;4.70;;;;;;;;;;6252265;28;20046;-76
2022/04/12 15:12:06;;;;;;;15.93;5.93;;;;;;;;;;6253033;28;20162;-76
2022/04/12 15:15:09;;;;;;;6.63;5.33;;;;;;;;;;6252821;28;20650;-74
2022/04/12 15:18:11;;;;;;;6.32;4.70;;;;;;;;;;6252304;28;20127;-75
2022/04/12 15:21:13;;;;;;;6.97;5.18;;;;;;;;;;6252435;28;20041;-75
2022/04/12 15:24:16;;;;;;;9.30;5.20;;;;;;;;;;6255938;28;20068;-75
2022/04/12 15:27:17;;;;;;;;;;;;;;;;;;6253888;28;20118;-73
2022/04/12 15:30:19;;;;;;;7.68;4.93;;;;;;;;;;6250832;28;20643;-74
2022/04/12 15:33:21;;;;;;;12.10;5.13;;;;;;;;;;6252855;28;20202;-74
2022/04/12 15:36:22;;;;;;;8.02;5.57;;;;;;;;;;6250944;28;20119;-74
2022/04/12 15:39:25;;;;;;;8.45;5.25;;;;;;;;;;6250392;28;20053;-74
2022/04/12 15:42:27;;;;;;;5.43;4.82;;;;;;;;;;6254926;28;20481;-74
2022/04/12 15:45:28;;;;;;;7.53;5.93;;;;;;;;;;6254245;28;20080;-74
2022/04/12 15:48:30;;;;;;;9.82;6.05;;;;;;;;;;6252080;28;20124;-74
2022/04/12 15:51:32;;;;;;;9.15;5.53;;;;;;;;;;6249508;28;20632;-74
2022/04/12 15:54:35;;;;;;;13.38;5.43;;;;;;;;;;6250035;28;20526;-73
2022/04/12 15:57:36;;;;;;;7.28;5.35;;;;;;;;;;6251691;28;20041;-75
2022/04/12 16:00:38;;;;;;;9.52;5.38;;;;;;;;;;6251813;28;20045;-74
2022/04/12 16:03:40;;;;;;;9.02;5.18;;;;;;;;;;6251602;28;20140;-74
2022/04/12 16:06:41;;;;;;;9.02;5.80;;;;;;;;;;6258046;28;20048;-74
2022/04/12 16:09:44;;;;;;;11.90;6.28;;;;;;;;;;6255215;28;20041;-75
2022/04/12 16:12:46;;;;;;;;;;;;;;;;;;6254624;28;20153;-74
2022/04/12 16:15:47;;;;;;;7.47;5.07;;;;;;;;;;6250456;28;19925;-75
2022/04/12 16:18:49;;;;;;;10.10;5.78;;;;;;;;;;6244644;28;20088;-75
2022/04/12 16:21:51;;;;;;;8.45;5.90;;;;;;;;;;6248505;28;20072;-73
2022/04/12 16:24:54;;;;;;;12.93;5.72;;;;;;;;;;6259511;28;20095;-71
2022/04/12 16:27:57;;;;;;;;;;;;;;;;;;6252987;28;20409;-74
2022/04/12 16:30:58;;;;;;;8.15;5.97;;;;;;;;;;6258034;28;19983;-75
2022/04/12 16:34:00;;;;;;;10.98;6.75;;;;;;;;;;6253342;28;20259;-75
2022/04/12 16:37:01;;;;;;;9.98;5.78;;;;;;;;;;6254574;28;20077;-78
2022/04/12 16:40:05;;;;;;;6.65;5.20;;;;;;;;;;6256766;28;20060;-78
2022/04/12 16:43:10;;;;;;;7.07;4.72;;;;;;;;;;6255761;28;20049;-79
2022/04/12 16:46:11;;;;;;;7.72;4.47;;;;;;;;;;6253716;28;20482;-79
2022/04/12 16:49:13;;;;;;;10.00;4.57;;;;;;;;;;6255696;28;20053;-81
2022/04/12 16:52:16;;;;;;;8.18;4.82;;;;;;;;;;6257442;28;20053;-79
2022/04/12 16:55:19;;;;;;;8.67;5.67;;;;;;;;;;6255084;28;20060;-80
2022/04/12 16:58:20;;;;;;;;;;;;;;;;;;6254031;28;20057;-75
2022/04/12 17:01:22;;;;;;;8.27;5.68;;;;;;;;;;6252143;28;19924;-75
2022/04/12 17:04:24;;;;;;;10.05;6.65;;;;;;;;;;6255024;28;20512;-74
2022/04/12 17:07:27;;;;;;;12.73;6.72;;;;;;;;;;6254482;28;20143;-76
2022/04/12 17:10:30;;;;;;;;;;;;;;;;;;6257905;28;20579;-74
2022/04/12 17:13:32;;;;;;;10.95;6.55;;;;;;;;;;6258890;28;20011;-74
2022/04/12 17:16:34;;;;;;;11.30;7.25;;;;;;;;;;6253741;28;20630;-78
2022/04/12 17:19:35;;;;;;;9.98;6.80;;;;;;;;;;6259063;28;20064;-77
2022/04/12 17:22:37;;;;;;;9.25;6.45;;;;;;;;;;6258288;28;20544;-76
2022/04/12 17:25:40;;;;;;;9.25;6.47;;;;;;;;;;6257812;28;20168;-80
2022/04/12 17:28:44;;;;;;;8.40;7.13;;;;;;;;;;6250520;28;20403;-77
2022/04/12 17:31:47;;;;;;;10.43;5.97;;;;;;;;;;6260008;28;20750;-80
2022/04/12 17:34:51;;;;;;;11.38;6.53;;;;;;;;;;6252342;28;20489;-79
2022/04/12 17:37:53;;;;;;;13.45;6.60;;;;;;;;;;6249038;28;20055;-81
2022/04/12 17:40:56;;;;;;;10.20;6.78;;;;;;;;;;6246599;28;20402;-84
2022/04/12 17:43:58;;;;;;;10.48;6.72;;;;;;;;;;6250477;28;20052;-76
2022/04/12 17:47:00;;;;;;;9.93;6.55;;;;;;;;;;6257357;28;20080;-75
2022/04/12 17:50:03;;;;;;;9.05;6.80;;;;;;;;;;6248439;28;20140;-74
2022/04/12 17:53:05;;;;;;;9.57;6.43;;;;;;;;;;6247000;28;20048;-75
2022/04/12 17:56:10;;;;;;;8.52;6.80;;;;;;;;;;6252139;28;20054;-76
2022/04/12 17:59:12;;;;;;;10.70;7.03;;;;;;;;;;6249833;28;20045;-77
2022/04/12 18:02:14;;;;;;;10.98;6.63;;;;;;;;;;6252637;28;20476;-76
2022/04/12 18:05:16;;;;;;;12.75;7.68;;;;;;;;;;6253023;28;20054;-74
2022/04/12 18:08:18;;;;;;;12.32;7.03;;;;;;;;;;6253438;28;20049;-78
2022/04/12 18:11:22;;;;;;;11.45;7.10;;;;;;;;;;6254470;28;20049;-70
2022/04/12 18:14:24;;;;;;;10.50;7.25;;;;;;;;;;6254723;28;20719;-71
2022/04/12 18:17:26;;;;;;;14.80;7.60;;;;;;;;;;6256061;28;20065;-70
2022/04/12 18:20:28;;;;;;;14.95;7.18;;;;;;;;;;6254246;28;20049;-76
2022/04/12 18:23:30;;;;;;;15.38;6.95;;;;;;;;;;6254322;28;20052;-78